Dades meteomassalio
Diari Summary for Febrer 7, 2017 Units:  English    Metric   Both
« Previous Day
Next Day »
Diari Semanal Mensual Anual Personalitzat
  Maxima: Minima: Mijana:
Temperatura: TemperatureC °F 8.3 °F 12.4 °F
Rosada: DewpointC °F 5.4 °F 7.5 °F
Humitat: Humidity % 63 % 72 %
Velocitat del vent: WindSpeedKMH mph 0.0 mph 26.3 mph
Racha vent: WindSpeedGustKMH mph - -
Vent:- - WNW
Pressio: PressurehPa in 1018.5 in -
Pluja: 2.3 in    
Historical Graphs
 
 
Tabular Data for Febrer 7, 2017
Time Temperature Dew Point Pressure Wind Wind Speed Wind Gust Humidity Rainfall Rate (Hourly) solar Conditions
TemperatureC °F DewpointC °F PressurehPa in Calm     Humidity % HourlyPrecipMM in SolarRadiationWatts/m^2 W/m2 Conditions
00:00 13.3 °F 7.3 °F 1021.9 in WNW 22.2 mph 22.2 mph 67 % 0.0 in 0.0 W/m2 CLR
00:05 13.4 °F 7.4 °F 1021.9 in WNW 24.1 mph 24.1 mph 67 % 0.0 in 0.0 W/m2 CLR
00:10 13.3 °F 7.3 °F 1021.9 in WNW 31.5 mph 31.5 mph 67 % 0.0 in 0.0 W/m2 CLR
00:15 13.3 °F 7.3 °F 1021.6 in WNW 29.6 mph 29.6 mph 67 % 0.0 in 0.0 W/m2 CLR
00:20 13.3 °F 7.5 °F 1021.9 in WNW 42.6 mph 42.6 mph 68 % 0.0 in 0.0 W/m2 CLR
00:25 13.3 °F 7.3 °F 1021.9 in WNW 31.5 mph 31.5 mph 67 % 0.0 in 0.0 W/m2 CLR
00:30 13.2 °F 7.4 °F 1021.6 in WNW 31.5 mph 31.5 mph 68 % 0.0 in 0.0 W/m2 CLR
00:35 13.1 °F 7.3 °F 1021.6 in WNW 33.3 mph 33.3 mph 68 % 0.0 in 0.0 W/m2 CLR
00:40 13.2 °F 7.4 °F 1021.6 in WNW 37.0 mph 37.0 mph 68 % 0.0 in 0.0 W/m2 CLR
00:45 13.1 °F 7.3 °F 1021.6 in WNW 31.5 mph 31.5 mph 68 % 0.0 in 0.0 W/m2 CLR
00:50 13.2 °F 7.2 °F 1021.6 in WNW 40.7 mph 40.7 mph 67 % 0.0 in 0.0 W/m2 CLR
00:55 13.1 °F 7.3 °F 1021.6 in WNW 35.2 mph 35.2 mph 68 % 0.0 in 0.0 W/m2 CLR
01:00 13.1 °F 7.1 °F 1021.6 in WNW 31.5 mph 31.5 mph 67 % 0.0 in 0.0 W/m2 CLR
01:05 12.9 °F 7.2 °F 1021.6 in WNW 29.6 mph 29.6 mph 68 % 0.0 in 0.0 W/m2 CLR
01:10 12.9 °F 7.2 °F 1021.6 in WNW 31.5 mph 31.5 mph 68 % 0.0 in 0.0 W/m2 CLR
01:15 12.8 °F 7.1 °F 1021.6 in WNW 29.6 mph 29.6 mph 68 % 0.0 in 0.0 W/m2 CLR
01:20 12.8 °F 7.1 °F 1021.6 in WNW 32.2 mph 32.2 mph 68 % 0.0 in 0.0 W/m2 CLR
01:25 12.9 °F 6.9 °F 1021.6 in WNW 33.3 mph 33.3 mph 67 % 0.0 in 0.0 W/m2 CLR
01:30 12.9 °F 6.9 °F 1021.6 in WNW 33.3 mph 33.3 mph 67 % 0.0 in 0.0 W/m2 CLR
01:35 12.8 °F 6.8 °F 1021.6 in WNW 31.5 mph 31.5 mph 67 % 0.0 in 0.0 W/m2 CLR
01:40 12.6 °F 6.8 °F 1021.6 in WNW 31.5 mph 31.5 mph 68 % 0.0 in 0.0 W/m2 CLR
01:45 12.6 °F 6.8 °F 1021.6 in WNW 33.8 mph 33.8 mph 68 % 0.0 in 0.0 W/m2 CLR
01:50 12.7 °F 6.7 °F 1021.6 in WNW 31.5 mph 31.5 mph 67 % 0.0 in 0.0 W/m2 CLR
01:55 12.8 °F 6.8 °F 1021.6 in WNW 31.5 mph 31.5 mph 67 % 0.0 in 0.0 W/m2 CLR
02:00 12.8 °F 6.8 °F 1021.6 in WNW 27.8 mph 27.8 mph 67 % 0.0 in 0.0 W/m2 CLR
02:05 12.7 °F 6.7 °F 1021.6 in WNW 27.8 mph 27.8 mph 67 % 0.0 in 0.0 W/m2 CLR
02:10 12.7 °F 6.7 °F 1021.6 in WNW 31.5 mph 31.5 mph 67 % 0.0 in 0.0 W/m2 CLR
02:15 12.8 °F 6.6 °F 1021.6 in WNW 37.0 mph 37.0 mph 66 % 0.0 in 0.0 W/m2 CLR
02:20 12.8 °F 6.6 °F 1021.6 in WNW 42.6 mph 42.6 mph 66 % 0.0 in 0.0 W/m2 CLR
02:25 12.8 °F 6.4 °F 1021.6 in WNW 33.3 mph 33.3 mph 65 % 0.0 in 0.0 W/m2 CLR
02:30 12.8 °F 6.6 °F 1021.6 in WNW 38.9 mph 38.9 mph 66 % 0.0 in 0.0 W/m2 CLR
02:35 12.7 °F 6.5 °F 1021.6 in WNW 35.4 mph 35.4 mph 66 % 0.0 in 0.0 W/m2 CLR
02:40 12.7 °F 6.5 °F 1021.6 in WNW 29.6 mph 29.6 mph 66 % 0.0 in 0.0 W/m2 CLR
02:45 12.8 °F 6.4 °F 1021.6 in WNW 35.2 mph 35.2 mph 65 % 0.0 in 0.0 W/m2 CLR
02:50 12.9 °F 6.3 °F 1021.6 in WNW 35.2 mph 35.2 mph 64 % 0.0 in 0.0 W/m2 CLR
02:55 12.7 °F 6.3 °F 1021.6 in WNW 29.6 mph 29.6 mph 65 % 0.0 in 0.0 W/m2 CLR
03:00 12.7 °F 6.3 °F 1021.6 in WNW 25.9 mph 25.9 mph 65 % 0.0 in 0.0 W/m2 CLR
03:05 12.6 °F 6.2 °F 1021.6 in WNW 30.6 mph 30.6 mph 65 % 0.0 in 0.0 W/m2 CLR
03:10 12.6 °F 6.4 °F 1021.6 in NW 27.8 mph 27.8 mph 66 % 0.0 in 0.0 W/m2 CLR
03:15 12.6 °F 6.2 °F 1021.6 in WNW 16.1 mph 16.1 mph 65 % 0.0 in 0.0 W/m2 CLR
03:21 12.5 °F 6.1 °F 1021.6 in WNW 19.3 mph 19.3 mph 65 % 0.0 in 0.0 W/m2 CLR
03:26 12.4 °F 6.2 °F 1021.6 in WNW 22.2 mph 22.2 mph 66 % 0.0 in 0.0 W/m2 CLR
03:31 12.2 °F 6.1 °F 1021.2 in WNW 24.1 mph 24.1 mph 66 % 0.0 in 0.0 W/m2 CLR
03:36 12.1 °F 5.9 °F 1021.2 in WNW 27.8 mph 27.8 mph 66 % 0.0 in 0.0 W/m2 CLR
03:41 12.2 °F 6.0 °F 1020.9 in WNW 31.5 mph 31.5 mph 66 % 0.0 in 0.0 W/m2 CLR
03:46 12.2 °F 6.0 °F 1020.9 in WNW 29.0 mph 29.0 mph 66 % 0.0 in 0.0 W/m2 CLR
03:51 12.2 °F 6.1 °F 1020.9 in WNW 27.8 mph 27.8 mph 66 % 0.0 in 0.0 W/m2 CLR
03:56 12.3 °F 5.9 °F 1020.9 in WNW 31.5 mph 31.5 mph 65 % 0.0 in 0.0 W/m2 CLR
04:01 12.3 °F 5.9 °F 1020.9 in WNW 24.1 mph 24.1 mph 65 % 0.0 in 0.0 W/m2 CLR
04:06 12.3 °F 5.9 °F 1020.9 in West 20.4 mph 20.4 mph 65 % 0.0 in 0.0 W/m2 CLR
04:11 12.3 °F 5.9 °F 1020.9 in West 24.1 mph 24.1 mph 65 % 0.0 in 0.0 W/m2 CLR
04:16 12.3 °F 5.9 °F 1020.9 in West 20.4 mph 20.4 mph 65 % 0.0 in 0.0 W/m2 CLR
04:21 12.2 °F 5.8 °F 1020.9 in West 20.9 mph 20.9 mph 65 % 0.0 in 0.0 W/m2 CLR
04:26 12.2 °F 5.8 °F 1020.9 in West 16.7 mph 16.7 mph 65 % 0.0 in 0.0 W/m2 CLR
04:31 12.2 °F 5.8 °F 1021.2 in Calm     65 % 0.0 in 0.0 W/m2 CLR
04:36 12.0 °F 5.8 °F 1021.2 in Calm     66 % 0.0 in 0.0 W/m2 CLR
04:41 11.9 °F 5.7 °F 1021.2 in West 3.7 mph 3.7 mph 66 % 0.0 in 0.0 W/m2 CLR
04:46 11.8 °F 5.8 °F 1021.2 in Calm     67 % 0.0 in 0.0 W/m2 CLR
04:51 11.7 °F 5.7 °F 1020.9 in Calm     67 % 0.0 in 0.0 W/m2 CLR
04:56 11.6 °F 5.7 °F 1020.9 in SW 1.9 mph 1.9 mph 67 % 0.0 in 0.0 W/m2 CLR
05:01 11.6 °F 5.6 °F 1020.9 in Calm     67 % 0.0 in 0.0 W/m2 CLR
05:06 11.3 °F 5.6 °F 1021.2 in Calm     68 % 0.0 in 0.0 W/m2 CLR
05:11 11.2 °F 5.7 °F 1021.2 in Calm     69 % 0.0 in 0.0 W/m2 CLR
05:16 11.1 °F 5.6 °F 1021.2 in Calm     69 % 0.0 in 0.0 W/m2 CLR
05:21 10.9 °F 5.7 °F 1021.2 in Calm     70 % 0.0 in 0.0 W/m2 CLR
05:26 10.8 °F 5.5 °F 1021.2 in Calm     70 % 0.0 in 0.0 W/m2 CLR
05:31 10.8 °F 5.6 °F 1021.2 in Calm     70 % 0.0 in 0.0 W/m2 CLR
05:36 10.9 °F 5.6 °F 1021.2 in Calm     70 % 0.0 in 0.0 W/m2 CLR
05:41 10.9 °F 5.6 °F 1021.2 in Calm     70 % 0.0 in 0.0 W/m2 CLR
05:46 10.9 °F 5.6 °F 1021.2 in Calm     70 % 0.0 in 0.0 W/m2 CLR
05:51 10.8 °F 5.6 °F 1020.9 in Calm     70 % 0.0 in 0.0 W/m2 CLR
05:56 10.8 °F 5.5 °F 1021.2 in WNW 3.7 mph   70 % 0.0 in 0.0 W/m2 CLR
05:57 10.8 °F 5.5 °F 1020.9 in Calm     70 % 0.0 in 0.0 W/m2 CLR
06:02 10.7 °F 5.7 °F 1021.2 in WNW 3.2 mph 3.2 mph 71 % 0.0 in 0.0 W/m2 CLR
06:07 10.7 °F 5.7 °F 1021.2 in NW 3.7 mph 3.7 mph 71 % 0.0 in 0.0 W/m2 CLR
06:12 10.7 °F 5.8 °F 1020.9 in WNW 9.7 mph 9.7 mph 72 % 0.0 in 0.0 W/m2 CLR
06:17 10.8 °F 5.9 °F 1020.9 in West 7.4 mph 7.4 mph 72 % 0.0 in 0.0 W/m2 CLR
06:22 10.8 °F 5.8 °F 1020.9 in West 9.3 mph 9.3 mph 71 % 0.0 in 0.0 W/m2 CLR
06:27 10.8 °F 5.8 °F 1020.9 in West 9.7 mph 9.7 mph 71 % 0.0 in 0.0 W/m2 CLR
06:32 10.8 °F 6.0 °F 1020.9 in West 9.3 mph 9.3 mph 72 % 0.0 in 0.0 W/m2 CLR
06:37 10.8 °F 6.0 °F 1020.9 in WNW 11.1 mph 11.1 mph 72 % 0.0 in 0.0 W/m2 CLR
06:38 10.8 °F 6.0 °F 1020.9 in WNW 11.1 mph 11.1 mph 72 % 0.0 in 0.0 W/m2 CLR
06:43 10.8 °F 6.0 °F 1020.9 in WNW 16.7 mph 16.7 mph 72 % 0.0 in 0.0 W/m2 CLR
06:48 10.9 °F 6.1 °F 1020.9 in WNW 18.5 mph 18.5 mph 72 % 0.0 in 0.0 W/m2 CLR
06:53 10.9 °F 6.1 °F 1020.9 in WNW 18.5 mph 18.5 mph 72 % 0.0 in 0.0 W/m2 CLR
06:58 11.1 °F 6.2 °F 1020.9 in WNW 16.7 mph 16.7 mph 72 % 0.0 in 0.0 W/m2 CLR
07:03 11.1 °F 6.3 °F 1020.9 in WNW 18.5 mph 18.5 mph 72 % 0.0 in 0.0 W/m2 CLR
07:08 11.3 °F 6.3 °F 1020.9 in WNW 20.9 mph 20.9 mph 71 % 0.0 in 0.0 W/m2 CLR
07:13 11.4 °F 6.4 °F 1020.9 in WNW 24.1 mph 24.1 mph 71 % 0.0 in 0.0 W/m2 CLR
07:18 11.6 °F 6.5 °F 1020.9 in WNW 25.9 mph 25.9 mph 71 % 0.0 in 0.0 W/m2 CLR
07:23 11.7 °F 6.6 °F 1020.9 in WNW 24.1 mph 24.1 mph 71 % 0.0 in 0.0 W/m2 CLR
07:28 11.7 °F 6.6 °F 1020.9 in WNW 33.3 mph 33.3 mph 71 % 0.0 in 0.0 W/m2 CLR
07:33 11.8 °F 6.7 °F 1020.9 in WNW 31.5 mph 31.5 mph 71 % 0.0 in 0.0 W/m2 CLR
07:38 11.9 °F 6.8 °F 1020.9 in WNW 24.1 mph 24.1 mph 71 % 0.0 in 0.0 W/m2 CLR
07:43 11.9 °F 6.8 °F 1021.2 in WNW 22.2 mph 22.2 mph 71 % 0.0 in 0.0 W/m2 CLR
07:48 11.8 °F 6.9 °F 1021.2 in WNW 25.7 mph 25.7 mph 72 % 0.0 in 0.0 W/m2 CLR
07:53 11.8 °F 6.9 °F 1021.2 in WNW 30.6 mph 30.6 mph 72 % 0.0 in 0.0 W/m2 CLR
07:58 11.8 °F 6.9 °F 1021.2 in WNW 31.5 mph 31.5 mph 72 % 0.0 in 0.0 W/m2 CLR
08:03 11.8 °F 7.1 °F 1021.2 in WNW 29.0 mph 29.0 mph 73 % 0.0 in 0.0 W/m2 OVC
08:08 11.8 °F 7.1 °F 1021.2 in WNW 33.8 mph 33.8 mph 73 % 0.0 in 0.0 W/m2 OVC
08:13 11.8 °F 7.1 °F 1021.2 in WNW 32.2 mph 32.2 mph 73 % 0.0 in 7.0 W/m2 BKN
08:18 11.8 °F 7.1 °F 1021.2 in WNW 25.9 mph 25.9 mph 73 % 0.0 in 14.0 W/m2 BKN
08:23 11.7 °F 7.1 °F 1021.2 in WNW 22.2 mph 22.2 mph 73 % 0.0 in 14.0 W/m2 BKN
08:28 11.7 °F 7.1 °F 1021.2 in WNW 24.1 mph 24.1 mph 73 % 0.0 in 14.0 W/m2 BKN
08:33 11.6 °F 7.1 °F 1021.2 in WNW 22.2 mph 22.2 mph 74 % 0.0 in 16.0 W/m2 BKN
08:38 11.4 °F 6.9 °F 1021.2 in WNW 24.1 mph 24.1 mph 74 % 0.0 in 16.0 W/m2 BKN
08:43 11.3 °F 7.0 °F 1021.2 in WNW 24.1 mph 24.1 mph 75 % 0.0 in 16.0 W/m2 BKN
08:48 11.2 °F 7.2 °F 1021.2 in WNW 22.2 mph 22.2 mph 76 % 0.0 in 16.0 W/m2 BKN
08:53 11.2 °F 7.2 °F 1020.9 in WNW 29.6 mph 29.6 mph 76 % 0.0 in 16.0 W/m2 BKN
08:58 11.2 °F 7.2 °F 1020.9 in WNW 24.1 mph 24.1 mph 76 % 0.0 in 18.0 W/m2 BKN
09:03 11.2 °F 7.1 °F 1020.9 in WNW 24.1 mph 24.1 mph 76 % 0.0 in 19.0 W/m2 BKN
09:08 11.1 °F 7.1 °F 1021.2 in WNW 20.4 mph 20.4 mph 76 % 0.0 in 21.0 W/m2 BKN
09:13 11.2 °F 7.2 °F 1021.2 in WNW 29.6 mph 29.6 mph 76 % 0.0 in 23.0 W/m2 BKN
09:18 11.3 °F 7.3 °F 1021.2 in WNW 25.9 mph 25.9 mph 76 % 0.0 in 25.0 W/m2 BKN
09:23 11.4 °F 7.3 °F 1020.9 in WNW 31.5 mph 31.5 mph 76 % 0.0 in 26.0 W/m2 BKN
09:28 11.6 °F 7.5 °F 1020.9 in WNW 31.5 mph 31.5 mph 76 % 0.0 in 30.0 W/m2 BKN
09:33 11.8 °F 7.7 °F 1021.2 in WNW 31.5 mph 31.5 mph 76 % 0.0 in 33.0 W/m2 BKN
09:38 12.1 °F 7.8 °F 1021.2 in WNW 38.9 mph 38.9 mph 75 % 0.0 in 199.0 W/m2 SCT
09:43 12.6 °F 8.1 °F 1021.2 in WNW 27.8 mph 27.8 mph 74 % 0.0 in 229.0 W/m2 CLR
09:48 12.7 °F 8.0 °F 1020.9 in WNW 35.2 mph 35.2 mph 73 % 0.0 in 76.0 W/m2 CLR
09:53 12.6 °F 8.1 °F 1020.9 in WNW 33.3 mph 33.3 mph 74 % 0.0 in 58.0 W/m2 FEW
09:58 12.5 °F 8.0 °F 1021.2 in WNW 27.8 mph 27.8 mph 74 % 0.0 in 63.0 W/m2 SCT
10:03 12.6 °F 8.1 °F 1021.2 in WNW 29.6 mph 29.6 mph 74 % 0.0 in 258.0 W/m2 FEW
10:08 12.9 °F 8.4 °F 1021.2 in WNW 27.8 mph 27.8 mph 74 % 0.0 in 144.0 W/m2 CLR
10:13 13.1 °F 8.4 °F 1021.2 in WNW 24.1 mph 24.1 mph 73 % 0.0 in 95.0 W/m2 CLR
10:18 13.1 °F 8.3 °F 1021.2 in WNW 22.2 mph 22.2 mph 73 % 0.0 in 163.0 W/m2 CLR
10:23 13.3 °F 8.6 °F 1021.2 in WNW 31.5 mph 31.5 mph 73 % 0.0 in 271.0 W/m2 CLR
10:28 13.6 °F 8.7 °F 1021.2 in WNW 22.2 mph 22.2 mph 72 % 0.0 in 348.0 W/m2 CLR
10:33 13.9 °F 8.7 °F 1021.2 in WNW 22.2 mph 22.2 mph 71 % 0.0 in 316.0 W/m2 CLR
10:38 14.1 °F 8.9 °F 1020.9 in WNW 24.1 mph 24.1 mph 71 % 0.0 in 302.0 W/m2 CLR
10:43 14.3 °F 8.7 °F 1020.9 in WNW 27.8 mph 27.8 mph 69 % 0.0 in 329.0 W/m2 CLR
10:48 14.4 °F 8.8 °F 1020.9 in WNW 31.5 mph 31.5 mph 69 % 0.0 in 292.0 W/m2 CLR
10:53 14.3 °F 8.5 °F 1020.5 in WNW 31.5 mph 31.5 mph 68 % 0.0 in 299.0 W/m2 CLR
10:58 14.4 °F 8.8 °F 1020.5 in WNW 42.6 mph 42.6 mph 69 % 0.0 in 271.0 W/m2 CLR
11:03 14.4 °F 8.8 °F 1020.5 in WNW 22.2 mph 22.2 mph 69 % 0.0 in 297.0 W/m2 CLR
11:08 14.6 °F 8.7 °F 1020.5 in WNW 42.6 mph 42.6 mph 68 % 0.0 in 408.0 W/m2 CLR
11:13 14.7 °F 8.9 °F 1020.5 in WNW 32.2 mph 32.2 mph 68 % 0.0 in 404.0 W/m2 CLR
11:18 14.9 °F 9.2 °F 1020.2 in WNW 32.2 mph 32.2 mph 69 % 0.0 in 408.0 W/m2 CLR
11:23 14.9 °F 9.1 °F 1020.2 in NW 46.7 mph 46.7 mph 68 % 0.0 in 462.0 W/m2 CLR
11:28 15.1 °F 8.9 °F 1020.2 in NW 42.6 mph 42.6 mph 67 % 0.0 in 457.0 W/m2 CLR
11:33 15.2 °F 8.8 °F 1020.2 in NW 50.0 mph 50.0 mph 66 % 0.0 in 443.0 W/m2 CLR
11:38 15.2 °F 9.3 °F 1020.2 in NW 30.6 mph 30.6 mph 68 % 0.0 in 431.0 W/m2 CLR
11:43 15.3 °F 9.2 °F 1020.2 in NW 42.6 mph 42.6 mph 67 % 0.0 in 278.0 W/m2 CLR
11:48 15.3 °F 9.0 °F 1020.2 in NW 42.6 mph 42.6 mph 66 % 0.0 in 496.0 W/m2 CLR
11:53 15.5 °F 9.2 °F 1020.2 in NW 38.9 mph 38.9 mph 66 % 0.0 in 329.0 W/m2 CLR
11:58 15.7 °F 9.3 °F 1020.2 in NW 50.0 mph 50.0 mph 66 % 0.0 in 559.0 W/m2 CLR
12:03 15.8 °F 9.2 °F 1020.2 in NW 40.7 mph 40.7 mph 65 % 0.0 in 570.0 W/m2 CLR
12:08 15.9 °F 9.3 °F 1020.2 in NW 42.6 mph 42.6 mph 65 % 0.0 in 575.0 W/m2 CLR
12:13 15.9 °F 9.3 °F 1020.2 in WNW 42.6 mph 42.6 mph 65 % 0.0 in 501.0 W/m2 CLR
12:18 15.8 °F 9.3 °F 1020.2 in NW 44.4 mph 44.4 mph 65 % 0.0 in 513.0 W/m2 CLR
12:23 15.9 °F 9.3 °F 1020.2 in NW 46.3 mph 46.3 mph 65 % 0.0 in 545.0 W/m2 CLR
12:28 15.9 °F 9.3 °F 1020.2 in NW 42.6 mph 42.6 mph 65 % 0.0 in 545.0 W/m2 CLR
12:33 15.9 °F 9.3 °F 1020.2 in NW 44.4 mph 44.4 mph 65 % 0.0 in 555.0 W/m2 CLR
12:38 16.0 °F 9.4 °F 1020.2 in NW 50.0 mph 50.0 mph 65 % 0.0 in 557.0 W/m2 CLR
12:43 15.9 °F 9.6 °F 1020.2 in NW 40.7 mph 40.7 mph 66 % 0.0 in 578.0 W/m2 CLR
12:49 16.1 °F 9.2 °F 1020.2 in NW 51.8 mph 51.8 mph 64 % 0.0 in 615.0 W/m2 CLR
12:54 16.0 °F 9.2 °F 1020.2 in NW 46.3 mph 46.3 mph 64 % 0.0 in 584.0 W/m2 CLR
12:59 16.1 °F 9.2 °F 1020.2 in NW 44.4 mph 44.4 mph 64 % 0.0 in 554.0 W/m2 CLR
13:04 16.2 °F 9.2 °F 1020.2 in NW 46.3 mph 46.3 mph 63 % 0.0 in 580.0 W/m2 CLR
13:09 16.2 °F 9.3 °F 1020.2 in NW 40.7 mph 40.7 mph 64 % 0.0 in 587.0 W/m2 CLR
13:14 16.4 °F 9.4 °F 1020.2 in NW 46.3 mph 46.3 mph 63 % 0.0 in 626.0 W/m2 CLR
13:19 16.2 °F 9.2 °F 1020.2 in NW 45.1 mph 45.1 mph 63 % 0.0 in 494.0 W/m2 CLR
13:24 16.1 °F 9.2 °F 1019.9 in NW 38.9 mph 38.9 mph 64 % 0.0 in 515.0 W/m2 CLR
13:29 16.1 °F 9.2 °F 1019.9 in NW 42.6 mph 42.6 mph 64 % 0.0 in 568.0 W/m2 CLR
13:34 16.5 °F 9.7 °F 1019.9 in NW 31.5 mph 31.5 mph 64 % 0.0 in 504.0 W/m2 CLR
13:39 16.4 °F 9.6 °F 1019.9 in NW 33.3 mph 33.3 mph 64 % 0.0 in 585.0 W/m2 CLR
13:44 16.4 °F 9.6 °F 1019.5 in NW 38.9 mph 38.9 mph 64 % 0.0 in 568.0 W/m2 CLR
13:49 16.4 °F 9.6 °F 1019.5 in NW 42.6 mph 42.6 mph 64 % 0.0 in 575.0 W/m2 CLR
13:54 16.0 °F 8.9 °F 1019.5 in NW 35.2 mph 35.2 mph 63 % 0.0 in 111.0 W/m2 CLR
13:59 16.0 °F 9.2 °F 1019.5 in NW 37.0 mph 37.0 mph 64 % 0.0 in 111.0 W/m2 CLR
14:04 15.9 °F 9.1 °F 1019.5 in NW 31.5 mph 31.5 mph 64 % 0.0 in 146.0 W/m2 CLR
14:09 15.7 °F 9.2 °F 1019.5 in NW 32.2 mph 32.2 mph 65 % 0.0 in 220.0 W/m2 CLR
14:14 15.6 °F 9.1 °F 1019.2 in NW 30.6 mph 30.6 mph 65 % 0.0 in 149.0 W/m2 CLR
14:19 15.4 °F 9.1 °F 1019.2 in NW 38.9 mph 38.9 mph 66 % 0.0 in 165.0 W/m2 CLR
14:24 15.3 °F 9.0 °F 1019.2 in NNW 24.1 mph 24.1 mph 66 % 0.0 in 192.0 W/m2 CLR
14:29 15.4 °F 9.3 °F 1019.2 in NNW 31.5 mph 31.5 mph 67 % 0.0 in 234.0 W/m2 CLR
14:34 15.4 °F 9.1 °F 1019.2 in NNW 33.3 mph 33.3 mph 66 % 0.0 in 209.0 W/m2 CLR
14:39 15.3 °F 9.0 °F 1018.8 in NW 22.5 mph 23.3 mph 66 % 0.0 in 192.0 W/m2 CLR
14:44 15.3 °F 9.2 °F 1018.8 in NNW 20.4 mph 20.4 mph 67 % 0.0 in 202.0 W/m2 CLR
14:49 15.3 °F 9.0 °F 1018.8 in NNW 27.8 mph 27.8 mph 66 % 0.0 in 209.0 W/m2 CLR
14:55 15.3 °F 8.9 °F 1018.8 in NNW 31.5 mph 31.5 mph 66 % 0.0 in 200.0 W/m2 CLR
15:00 15.2 °F 8.7 °F 1018.8 in NW 25.9 mph 25.9 mph 65 % 0.0 in 197.0 W/m2 CLR
15:05 15.2 °F 8.8 °F 1018.8 in NNW 24.1 mph 24.1 mph 66 % 0.0 in 200.0 W/m2 CLR
15:10 15.2 °F 8.8 °F 1018.5 in NNW 22.2 mph 22.2 mph 66 % 0.0 in 185.0 W/m2 CLR
15:15 15.2 °F 9.1 °F 1018.8 in NW 22.2 mph 22.2 mph 67 % 0.0 in 179.0 W/m2 CLR
15:20 15.1 °F 8.7 °F 1018.8 in NW 27.8 mph 27.8 mph 66 % 0.0 in 186.0 W/m2 CLR
15:25 14.9 °F 8.9 °F 1018.8 in NNW 24.1 mph 24.1 mph 67 % 0.0 in 183.0 W/m2 CLR
15:30 14.9 °F 8.9 °F 1018.8 in NW 24.1 mph 24.1 mph 67 % 0.0 in 171.0 W/m2 CLR
15:35 14.9 °F 8.8 °F 1018.5 in NW 17.7 mph 17.7 mph 67 % 0.0 in 162.0 W/m2 CLR
15:40 14.9 °F 8.9 °F 1018.5 in NW 13.0 mph 13.0 mph 67 % 0.0 in 151.0 W/m2 CLR
15:45 14.9 °F 8.6 °F 1018.8 in NW 29.6 mph 29.6 mph 66 % 0.0 in 137.0 W/m2 CLR
15:50 14.8 °F 8.7 °F 1018.8 in NW 24.1 mph 24.1 mph 67 % 0.0 in 116.0 W/m2 CLR
15:55 14.7 °F 8.9 °F 1018.8 in NW 20.4 mph 20.4 mph 68 % 0.0 in 116.0 W/m2 CLR
16:00 14.6 °F 8.7 °F 1018.8 in NW 25.9 mph 25.9 mph 68 % 0.0 in 107.0 W/m2 CLR
16:05 14.4 °F 8.6 °F 1018.8 in NW 27.8 mph 27.8 mph 68 % 0.0 in 95.0 W/m2 CLR
16:10 14.3 °F 8.7 °F 1018.8 in NW 27.8 mph 27.8 mph 69 % 0.0 in 93.0 W/m2 CLR
16:15 14.2 °F 8.6 °F 1018.8 in NW 18.5 mph 18.5 mph 69 % 0.0 in 97.0 W/m2 CLR
16:20 14.2 °F 8.8 °F 1018.8 in NW 20.4 mph 20.4 mph 70 % 0.0 in 93.0 W/m2 CLR
16:25 14.1 °F 8.7 °F 1018.5 in NW 18.5 mph 18.5 mph 70 % 0.0 in 88.0 W/m2 CLR
16:30 14.1 °F 8.7 °F 1018.8 in NW 24.1 mph 24.1 mph 70 % 0.0 in 74.0 W/m2 CLR
16:35 14.1 °F 8.7 °F 1018.5 in NW 20.4 mph 20.4 mph 70 % 0.0 in 62.0 W/m2 FEW
16:40 14.1 °F 8.7 °F 1018.5 in NW 14.8 mph 14.8 mph 70 % 0.0 in 58.0 W/m2 FEW
16:45 13.9 °F 8.6 °F 1018.5 in NW 18.5 mph 18.5 mph 70 % 0.0 in 56.0 W/m2 SCT
16:50 13.9 °F 8.5 °F 1018.5 in NW 18.5 mph 18.5 mph 70 % 0.0 in 63.0 W/m2 SCT
16:55 13.8 °F 8.4 °F 1018.5 in NW 18.5 mph 18.5 mph 70 % 0.0 in 54.0 W/m2 SCT
17:00 13.7 °F 8.3 °F 1018.8 in NW 18.5 mph 18.5 mph 70 % 0.0 in 53.0 W/m2 SCT
17:05 13.6 °F 8.4 °F 1018.5 in NW 16.7 mph 16.7 mph 71 % 0.0 in 44.0 W/m2 SCT
17:10 13.6 °F 8.4 °F 1018.8 in NW 22.2 mph 22.2 mph 71 % 0.0 in 33.0 W/m2 BKN
17:15 13.4 °F 8.3 °F 1018.8 in NW 22.2 mph 22.2 mph 71 % 0.0 in 28.0 W/m2 BKN
17:20 13.4 °F 8.2 °F 1018.8 in NW 24.1 mph 24.1 mph 71 % 0.0 in 23.0 W/m2 BKN
17:25 13.3 °F 8.1 °F 1019.2 in NW 22.2 mph 22.2 mph 71 % 0.0 in 23.0 W/m2 BKN
17:30 13.2 °F 8.2 °F 1018.8 in NW 17.7 mph 17.7 mph 72 % 0.0 in 19.0 W/m2 BKN
17:35 13.0 °F 8.4 °F 1019.2 in NW 20.9 mph 20.9 mph 74 % 0.0 in 19.0 W/m2 BKN
17:39 12.8 °F 8.5 °F 1019.2 in NW 25.7 mph 25.7 mph 75 % 0.0 in 19.0 W/m2 BKN
17:44 12.7 °F 8.6 °F 1019.5 in NW 18.5 mph 18.5 mph 76 % 0.0 in 16.0 W/m2 BKN
17:49 12.4 °F 8.5 °F 1019.5 in NW 27.8 mph 27.8 mph 77 % 0.3 in 16.0 W/m2 RA
17:54 12.3 °F 8.4 °F 1019.5 in NW 24.1 mph 24.1 mph 77 % 0.3 in 16.0 W/m2 BKN
17:59 12.3 °F 8.6 °F 1019.5 in NW 18.5 mph 18.5 mph 78 % 0.3 in 16.0 W/m2 BKN
18:04 12.1 °F 8.6 °F 1019.5 in NW 27.8 mph 27.8 mph 79 % 0.3 in 12.0 W/m2 BKN
18:09 12.1 °F 8.5 °F 1019.5 in NW 22.2 mph 22.2 mph 79 % 0.3 in 0.0 W/m2 OVC
18:14 11.9 °F 8.6 °F 1019.9 in NW 20.4 mph 20.4 mph 80 % 0.3 in 0.0 W/m2 OVC
18:19 11.7 °F 8.6 °F 1019.9 in NW 16.7 mph 16.7 mph 81 % 0.3 in 0.0 W/m2 OVC
18:24 11.5 °F 8.7 °F 1020.2 in WNW 13.0 mph 13.0 mph 83 % 0.5 in 0.0 W/m2 RA
18:29 11.3 °F 8.7 °F 1020.2 in NW 31.5 mph 31.5 mph 84 % 0.8 in 0.0 W/m2 RA
18:34 11.1 °F 8.8 °F 1020.2 in NW 24.1 mph 24.1 mph 86 % 1.3 in 0.0 W/m2 RA
18:39 10.9 °F 8.6 °F 1020.2 in WNW 27.8 mph 27.8 mph 86 % 1.5 in 0.0 W/m2 RA
18:44 10.8 °F 8.7 °F 1020.2 in WNW 18.5 mph 18.5 mph 87 % 1.5 in 0.0 W/m2 RA
18:49 10.7 °F 8.6 °F 1020.2 in WNW 18.5 mph 18.5 mph 87 % 1.5 in 0.0 W/m2 CLR
18:54 10.6 °F 8.6 °F 1019.9 in West 19.3 mph 19.3 mph 87 % 1.5 in 0.0 W/m2 CLR
18:59 10.6 °F 8.4 °F 1019.9 in West 22.5 mph 22.5 mph 86 % 1.5 in 0.0 W/m2 CLR
19:04 10.6 °F 8.4 °F 1020.2 in West 20.4 mph 20.4 mph 86 % 1.5 in 0.0 W/m2 RA
19:09 10.4 °F 8.2 °F 1020.2 in West 24.1 mph 24.1 mph 86 % 1.5 in 0.0 W/m2
19:14 10.3 °F 8.3 °F 1020.2 in West 25.9 mph 25.9 mph 87 % 2.0 in 0.0 W/m2 RA
19:19 10.3 °F 8.2 °F 1020.2 in West 18.5 mph 18.5 mph 87 % 2.0 in 0.0 W/m2 RA
19:24 10.2 °F 8.1 °F 1020.2 in West 20.4 mph 20.4 mph 87 % 1.8 in 0.0 W/m2
19:29 10.1 °F 8.2 °F 1020.2 in West 17.7 mph 17.7 mph 88 % 1.5 in 0.0 W/m2 CLR
19:34 10.1 °F 8.2 °F 1020.2 in WSW 18.5 mph 18.5 mph 88 % 1.3 in 0.0 W/m2 CLR
19:39 10.1 °F 8.2 °F 1020.2 in WSW 16.7 mph 16.7 mph 88 % 1.0 in 0.0 W/m2 CLR
19:44 10.1 °F 8.2 °F 1020.2 in West 14.8 mph 14.8 mph 88 % 0.8 in 0.0 W/m2 CLR
19:49 10.0 °F 8.1 °F 1020.2 in WSW 14.8 mph 14.8 mph 88 % 0.8 in 0.0 W/m2 CLR
19:54 10.0 °F 8.1 °F 1020.2 in WSW 16.7 mph 16.7 mph 88 % 0.8 in 0.0 W/m2 CLR
19:59 9.9 °F 8.1 °F 1020.2 in West 18.5 mph 18.5 mph 88 % 0.8 in 0.0 W/m2 CLR
20:04 10.0 °F 8.1 °F 1020.2 in West 18.5 mph 18.5 mph 88 % 0.5 in 0.0 W/m2 CLR
20:09 10.0 °F 8.1 °F 1020.2 in West 18.5 mph 18.5 mph 88 % 0.5 in 0.0 W/m2 CLR
20:14 10.1 °F 8.0 °F 1020.2 in West 18.5 mph 18.5 mph 87 % 0.3 in 0.0 W/m2 CLR
20:19 10.1 °F 8.1 °F 1020.2 in West 22.2 mph 22.2 mph 87 % 0.0 in 0.0 W/m2 CLR
20:24 10.2 °F 7.9 °F 1019.9 in West 24.1 mph 24.1 mph 86 % 0.0 in 0.0 W/m2 CLR
20:29 10.2 °F 8.0 °F 1019.9 in West 25.9 mph 25.9 mph 86 % 0.0 in 0.0 W/m2 CLR
20:34 10.2 °F 8.2 °F 1019.5 in West 25.9 mph 25.9 mph 87 % 0.0 in 0.0 W/m2 CLR
20:39 10.2 °F 8.0 °F 1019.5 in West 31.5 mph 31.5 mph 86 % 0.0 in 0.0 W/m2 CLR
20:44 10.2 °F 8.2 °F 1019.5 in WNW 27.8 mph 27.8 mph 87 % 0.0 in 0.0 W/m2 CLR
20:49 10.2 °F 8.1 °F 1019.5 in WNW 22.2 mph 22.2 mph 87 % 0.0 in 0.0 W/m2 CLR
20:54 10.1 °F 8.1 °F 1019.5 in WNW 30.6 mph 30.6 mph 87 % 0.0 in 0.0 W/m2 CLR
20:59 10.2 °F 7.9 °F 1019.2 in WNW 20.9 mph 20.9 mph 86 % 0.0 in 0.0 W/m2 CLR
21:04 10.1 °F 7.9 °F 1019.5 in WNW 24.1 mph 24.1 mph 86 % 0.0 in 0.0 W/m2 CLR
21:05 10.2 °F 7.9 °F 1019.5 in WNW 31.5 mph 31.5 mph 86 % 0.0 in 0.0 W/m2 CLR
21:10 10.2 °F 7.9 °F 1019.5 in WNW 29.6 mph 29.6 mph 86 % 0.0 in 0.0 W/m2 CLR
21:15 10.1 °F 7.8 °F 1019.5 in WNW 40.7 mph 40.7 mph 86 % 0.0 in 0.0 W/m2 CLR
21:20 10.0 °F 7.6 °F 1019.5 in WNW 24.1 mph 24.1 mph 85 % 0.0 in 0.0 W/m2 CLR
21:25 9.9 °F 7.4 °F 1019.5 in WNW 30.6 mph 30.6 mph 84 % 0.0 in 0.0 W/m2 CLR
21:30 9.9 °F 7.4 °F 1019.5 in WNW 31.5 mph 31.5 mph 84 % 0.0 in 0.0 W/m2 CLR
21:35 9.8 °F 7.1 °F 1019.5 in WNW 22.2 mph 22.2 mph 83 % 0.0 in 0.0 W/m2 CLR
21:40 9.7 °F 6.9 °F 1019.5 in WNW 22.2 mph 22.2 mph 83 % 0.0 in 0.0 W/m2 CLR
21:45 9.6 °F 6.9 °F 1019.5 in WNW 24.1 mph 24.1 mph 83 % 0.0 in 0.0 W/m2 CLR
21:50 9.6 °F 6.7 °F 1019.9 in NW 33.3 mph 33.3 mph 82 % 0.0 in 0.0 W/m2 CLR
21:55 9.6 °F 6.7 °F 1019.5 in NW 27.8 mph 27.8 mph 82 % 0.0 in 0.0 W/m2 CLR
22:01 9.5 °F 6.4 °F 1019.9 in WNW 33.8 mph 33.8 mph 81 % 0.0 in 0.0 W/m2 CLR
22:06 9.4 °F 6.3 °F 1019.5 in NW 33.3 mph 33.3 mph 81 % 0.0 in 0.0 W/m2 CLR
22:11 9.5 °F 6.4 °F 1019.9 in NW 37.0 mph 37.0 mph 81 % 0.0 in 0.0 W/m2 CLR
22:16 9.4 °F 6.3 °F 1019.9 in NW 31.5 mph 31.5 mph 81 % 0.0 in 0.0 W/m2 CLR
22:21 9.4 °F 6.3 °F 1019.9 in NW 31.5 mph 31.5 mph 81 % 0.0 in 0.0 W/m2 CLR
22:26 9.4 °F 6.1 °F 1019.9 in WNW 33.3 mph 33.3 mph 80 % 0.0 in 0.0 W/m2 CLR
22:31 9.4 °F 6.2 °F 1020.2 in WNW 27.8 mph 27.8 mph 80 % 0.0 in 0.0 W/m2 CLR
22:36 9.4 °F 6.2 °F 1019.9 in NW 31.5 mph 31.5 mph 80 % 0.0 in 0.0 W/m2 CLR
22:41 9.4 °F 6.2 °F 1020.2 in NW 42.6 mph 42.6 mph 80 % 0.0 in 0.0 W/m2 CLR
22:46 9.3 °F 6.2 °F 1020.2 in WNW 31.5 mph 31.5 mph 81 % 0.0 in 0.0 W/m2 CLR
22:51 9.1 °F 6.2 °F 1020.2 in WNW 33.3 mph 33.3 mph 82 % 0.0 in 0.0 W/m2 CLR
22:56 9.1 °F 6.2 °F 1020.2 in WNW 27.8 mph 27.8 mph 82 % 0.0 in 0.0 W/m2 CLR
23:01 9.0 °F 6.1 °F 1020.2 in WNW 31.5 mph 31.5 mph 82 % 0.0 in 0.0 W/m2 CLR
23:06 9.1 °F 5.9 °F 1020.2 in WNW 37.0 mph 37.0 mph 81 % 0.0 in 0.0 W/m2 CLR
23:11 8.9 °F 6.1 °F 1020.5 in WNW 31.5 mph 31.5 mph 82 % 0.0 in 0.0 W/m2 CLR
23:16 8.8 °F 6.1 °F 1020.9 in WNW 33.3 mph 33.3 mph 83 % 0.0 in 0.0 W/m2 CLR
23:21 8.7 °F 6.0 °F 1020.5 in WNW 31.5 mph 31.5 mph 83 % 0.0 in 0.0 W/m2 CLR
23:26 8.7 °F 6.0 °F 1020.5 in WNW 31.5 mph 31.5 mph 83 % 0.0 in 0.0 W/m2 CLR
23:31 8.7 °F 6.0 °F 1020.5 in WNW 37.0 mph 37.0 mph 83 % 0.0 in 0.0 W/m2 CLR
23:36 8.6 °F 6.1 °F 1020.5 in WNW 33.3 mph 33.3 mph 84 % 0.0 in 0.0 W/m2 CLR
23:41 8.6 °F 5.8 °F 1020.5 in WNW 31.5 mph 31.5 mph 83 % 0.0 in 0.0 W/m2 CLR
23:46 8.5 °F 5.8 °F 1020.5 in WNW 51.8 mph 51.8 mph 83 % 0.0 in 0.0 W/m2 CLR
23:51 8.4 °F 5.5 °F 1020.5 in WNW 42.6 mph 42.6 mph 82 % 0.0 in 0.0 W/m2 CLR
23:56 8.3 °F 5.4 °F 1020.5 in NW 29.6 mph 29.6 mph 82 % 0.0 in 0.0 W/m2 CLR
Lo Temps de Massalio
Compliments of Weather Underground - 1.25 mb